sensor_id;sensor_type;location;lat;lon;timestamp;P1;durP1;ratioP1;P2;durP2;ratioP2
70829;SDS011;58451;51.550;7.208;2024-02-21T00:00:28;22.50;;;6.00;;
70829;SDS011;58451;51.550;7.208;2024-02-21T00:02:00;23.60;;;6.90;;
70829;SDS011;58451;51.550;7.208;2024-02-21T00:03:32;23.20;;;7.30;;
70829;SDS011;58451;51.550;7.208;2024-02-21T00:05:07;20.00;;;6.30;;
70829;SDS011;58451;51.550;7.208;2024-02-21T00:06:40;24.30;;;7.20;;
70829;SDS011;58451;51.550;7.208;2024-02-21T00:08:12;21.60;;;6.70;;
70829;SDS011;58451;51.550;7.208;2024-02-21T00:09:47;21.70;;;7.00;;
70829;SDS011;58451;51.550;7.208;2024-02-21T00:11:21;21.90;;;6.80;;
70829;SDS011;58451;51.550;7.208;2024-02-21T00:12:55;22.60;;;7.50;;
70829;SDS011;58451;51.550;7.208;2024-02-21T00:14:28;22.60;;;6.60;;
70829;SDS011;58451;51.550;7.208;2024-02-21T00:16:01;21.80;;;7.40;;
70829;SDS011;58451;51.550;7.208;2024-02-21T00:17:33;23.80;;;7.60;;
70829;SDS011;58451;51.550;7.208;2024-02-21T00:19:05;21.40;;;6.90;;
70829;SDS011;58451;51.550;7.208;2024-02-21T00:20:37;23.00;;;7.30;;
70829;SDS011;58451;51.550;7.208;2024-02-21T00:22:09;23.70;;;6.60;;
70829;SDS011;58451;51.550;7.208;2024-02-21T00:23:41;20.30;;;5.90;;
70829;SDS011;58451;51.550;7.208;2024-02-21T00:25:13;25.50;;;7.70;;
70829;SDS011;58451;51.550;7.208;2024-02-21T00:26:46;21.70;;;7.20;;
70829;SDS011;58451;51.550;7.208;2024-02-21T00:28:18;20.50;;;7.50;;
70829;SDS011;58451;51.550;7.208;2024-02-21T00:29:53;21.70;;;7.10;;
70829;SDS011;58451;51.550;7.208;2024-02-21T00:31:25;24.90;;;7.90;;
70829;SDS011;58451;51.550;7.208;2024-02-21T00:32:58;23.10;;;7.50;;
70829;SDS011;58451;51.550;7.208;2024-02-21T00:34:30;23.90;;;7.80;;
70829;SDS011;58451;51.550;7.208;2024-02-21T00:36:03;21.40;;;6.90;;
70829;SDS011;58451;51.550;7.208;2024-02-21T00:37:36;23.30;;;7.00;;
70829;SDS011;58451;51.550;7.208;2024-02-21T00:39:08;25.10;;;7.60;;
70829;SDS011;58451;51.550;7.208;2024-02-21T00:40:40;20.80;;;6.70;;
70829;SDS011;58451;51.550;7.208;2024-02-21T00:42:13;24.10;;;7.60;;
70829;SDS011;58451;51.550;7.208;2024-02-21T00:43:45;22.20;;;6.60;;
70829;SDS011;58451;51.550;7.208;2024-02-21T00:45:17;23.10;;;7.30;;
70829;SDS011;58451;51.550;7.208;2024-02-21T00:46:49;23.00;;;6.60;;
70829;SDS011;58451;51.550;7.208;2024-02-21T00:48:22;22.80;;;6.60;;
70829;SDS011;58451;51.550;7.208;2024-02-21T00:49:54;24.20;;;7.30;;
70829;SDS011;58451;51.550;7.208;2024-02-21T00:51:27;18.90;;;6.20;;
70829;SDS011;58451;51.550;7.208;2024-02-21T00:52:58;22.70;;;7.00;;
70829;SDS011;58451;51.550;7.208;2024-02-21T00:54:30;22.90;;;7.70;;
70829;SDS011;58451;51.550;7.208;2024-02-21T00:56:18;24.40;;;7.70;;
70829;SDS011;58451;51.550;7.208;2024-02-21T00:57:51;22.00;;;6.40;;
70829;SDS011;58451;51.550;7.208;2024-02-21T00:59:23;27.30;;;7.60;;
70829;SDS011;58451;51.550;7.208;2024-02-21T01:00:55;24.50;;;7.70;;
70829;SDS011;58451;51.550;7.208;2024-02-21T01:02:27;24.30;;;7.20;;
70829;SDS011;58451;51.550;7.208;2024-02-21T01:04:00;25.00;;;7.50;;
70829;SDS011;58451;51.550;7.208;2024-02-21T01:05:32;22.90;;;7.40;;
70829;SDS011;58451;51.550;7.208;2024-02-21T01:07:04;22.30;;;7.40;;
70829;SDS011;58451;51.550;7.208;2024-02-21T01:08:36;19.00;;;6.40;;
70829;SDS011;58451;51.550;7.208;2024-02-21T01:10:08;21.00;;;7.20;;
70829;SDS011;58451;51.550;7.208;2024-02-21T01:11:40;25.00;;;8.00;;
70829;SDS011;58451;51.550;7.208;2024-02-21T01:13:12;24.30;;;7.50;;
70829;SDS011;58451;51.550;7.208;2024-02-21T01:14:44;28.30;;;7.70;;
70829;SDS011;58451;51.550;7.208;2024-02-21T01:16:21;20.50;;;7.70;;
70829;SDS011;58451;51.550;7.208;2024-02-21T01:17:53;21.80;;;7.30;;
70829;SDS011;58451;51.550;7.208;2024-02-21T01:19:27;25.00;;;8.10;;
70829;SDS011;58451;51.550;7.208;2024-02-21T01:20:59;23.10;;;7.10;;
70829;SDS011;58451;51.550;7.208;2024-02-21T01:22:32;23.20;;;7.30;;
70829;SDS011;58451;51.550;7.208;2024-02-21T01:24:04;23.00;;;8.20;;
70829;SDS011;58451;51.550;7.208;2024-02-21T01:25:36;26.20;;;7.50;;
70829;SDS011;58451;51.550;7.208;2024-02-21T01:27:08;20.00;;;7.00;;
70829;SDS011;58451;51.550;7.208;2024-02-21T01:28:41;20.30;;;7.20;;
70829;SDS011;58451;51.550;7.208;2024-02-21T01:30:13;23.50;;;7.00;;
70829;SDS011;58451;51.550;7.208;2024-02-21T01:31:45;21.70;;;6.20;;
70829;SDS011;58451;51.550;7.208;2024-02-21T01:33:19;20.70;;;6.80;;
70829;SDS011;58451;51.550;7.208;2024-02-21T01:34:51;20.80;;;6.90;;
70829;SDS011;58451;51.550;7.208;2024-02-21T01:36:24;22.90;;;6.70;;
70829;SDS011;58451;51.550;7.208;2024-02-21T01:37:56;20.70;;;6.90;;
70829;SDS011;58451;51.550;7.208;2024-02-21T01:39:27;19.80;;;6.80;;
70829;SDS011;58451;51.550;7.208;2024-02-21T01:41:00;20.30;;;7.50;;
70829;SDS011;58451;51.550;7.208;2024-02-21T01:42:32;21.70;;;7.00;;
70829;SDS011;58451;51.550;7.208;2024-02-21T01:44:04;25.80;;;6.90;;
70829;SDS011;58451;51.550;7.208;2024-02-21T01:45:36;27.30;;;7.70;;
70829;SDS011;58451;51.550;7.208;2024-02-21T01:47:08;25.00;;;7.00;;
70829;SDS011;58451;51.550;7.208;2024-02-21T01:48:40;22.20;;;7.20;;
70829;SDS011;58451;51.550;7.208;2024-02-21T01:50:13;22.20;;;6.60;;
70829;SDS011;58451;51.550;7.208;2024-02-21T01:51:47;23.50;;;7.10;;
70829;SDS011;58451;51.550;7.208;2024-02-21T01:53:21;19.90;;;6.40;;
70829;SDS011;58451;51.550;7.208;2024-02-21T01:54:59;20.10;;;5.30;;
70829;SDS011;58451;51.550;7.208;2024-02-21T01:56:35;20.70;;;5.90;;
70829;SDS011;58451;51.550;7.208;2024-02-21T01:58:07;25.00;;;7.60;;
70829;SDS011;58451;51.550;7.208;2024-02-21T01:59:40;18.80;;;6.20;;
70829;SDS011;58451;51.550;7.208;2024-02-21T02:01:12;20.40;;;6.20;;
70829;SDS011;58451;51.550;7.208;2024-02-21T02:02:47;22.30;;;6.90;;
70829;SDS011;58451;51.550;7.208;2024-02-21T02:04:21;19.70;;;5.50;;
70829;SDS011;58451;51.550;7.208;2024-02-21T02:05:54;16.80;;;5.00;;
70829;SDS011;58451;51.550;7.208;2024-02-21T02:07:27;22.30;;;7.10;;
70829;SDS011;58451;51.550;7.208;2024-02-21T02:09:00;26.00;;;8.30;;
70829;SDS011;58451;51.550;7.208;2024-02-21T02:10:43;21.30;;;5.90;;
70829;SDS011;58451;51.550;7.208;2024-02-21T02:12:21;21.80;;;6.20;;
70829;SDS011;58451;51.550;7.208;2024-02-21T02:13:53;25.30;;;7.20;;
70829;SDS011;58451;51.550;7.208;2024-02-21T02:15:41;18.80;;;6.40;;
70829;SDS011;58451;51.550;7.208;2024-02-21T02:17:18;22.50;;;6.70;;
70829;SDS011;58451;51.550;7.208;2024-02-21T02:18:51;21.40;;;6.60;;
70829;SDS011;58451;51.550;7.208;2024-02-21T02:20:23;24.40;;;7.00;;
70829;SDS011;58451;51.550;7.208;2024-02-21T02:22:05;23.40;;;7.20;;
70829;SDS011;58451;51.550;7.208;2024-02-21T02:23:46;18.30;;;5.40;;
70829;SDS011;58451;51.550;7.208;2024-02-21T02:25:18;20.90;;;6.00;;
70829;SDS011;58451;51.550;7.208;2024-02-21T02:26:51;19.40;;;6.80;;
70829;SDS011;58451;51.550;7.208;2024-02-21T02:28:23;21.90;;;6.70;;
70829;SDS011;58451;51.550;7.208;2024-02-21T02:29:56;21.60;;;7.00;;
70829;SDS011;58451;51.550;7.208;2024-02-21T02:31:28;22.40;;;6.80;;
70829;SDS011;58451;51.550;7.208;2024-02-21T02:33:00;24.60;;;7.00;;
70829;SDS011;58451;51.550;7.208;2024-02-21T02:34:32;23.20;;;7.20;;
70829;SDS011;58451;51.550;7.208;2024-02-21T02:36:05;24.80;;;7.00;;
70829;SDS011;58451;51.550;7.208;2024-02-21T02:37:37;24.90;;;7.00;;
70829;SDS011;58451;51.550;7.208;2024-02-21T02:39:12;22.10;;;6.90;;
70829;SDS011;58451;51.550;7.208;2024-02-21T02:40:44;20.60;;;6.50;;
70829;SDS011;58451;51.550;7.208;2024-02-21T02:42:16;18.80;;;6.30;;
70829;SDS011;58451;51.550;7.208;2024-02-21T02:43:48;21.00;;;6.80;;
70829;SDS011;58451;51.550;7.208;2024-02-21T02:45:23;26.10;;;7.10;;
70829;SDS011;58451;51.550;7.208;2024-02-21T02:46:55;24.60;;;7.50;;
70829;SDS011;58451;51.550;7.208;2024-02-21T02:48:27;18.70;;;5.80;;
70829;SDS011;58451;51.550;7.208;2024-02-21T02:49:59;25.00;;;8.00;;
70829;SDS011;58451;51.550;7.208;2024-02-21T02:51:32;27.50;;;7.20;;
70829;SDS011;58451;51.550;7.208;2024-02-21T02:53:04;23.40;;;6.40;;
70829;SDS011;58451;51.550;7.208;2024-02-21T02:54:39;26.20;;;7.20;;
70829;SDS011;58451;51.550;7.208;2024-02-21T02:56:15;23.00;;;7.50;;
70829;SDS011;58451;51.550;7.208;2024-02-21T02:57:47;18.10;;;5.70;;
70829;SDS011;58451;51.550;7.208;2024-02-21T02:59:20;21.50;;;6.60;;
70829;SDS011;58451;51.550;7.208;2024-02-21T03:00:52;20.60;;;6.30;;
70829;SDS011;58451;51.550;7.208;2024-02-21T03:02:25;18.90;;;6.50;;
70829;SDS011;58451;51.550;7.208;2024-02-21T03:04:02;24.80;;;6.40;;
70829;SDS011;58451;51.550;7.208;2024-02-21T03:05:35;22.80;;;6.80;;
70829;SDS011;58451;51.550;7.208;2024-02-21T03:07:07;26.50;;;7.80;;
70829;SDS011;58451;51.550;7.208;2024-02-21T03:08:39;18.70;;;6.50;;
70829;SDS011;58451;51.550;7.208;2024-02-21T03:10:14;19.50;;;6.30;;
70829;SDS011;58451;51.550;7.208;2024-02-21T03:11:49;23.20;;;6.80;;
70829;SDS011;58451;51.550;7.208;2024-02-21T03:13:21;23.90;;;6.30;;
70829;SDS011;58451;51.550;7.208;2024-02-21T03:14:53;21.40;;;6.50;;
70829;SDS011;58451;51.550;7.208;2024-02-21T03:16:25;17.60;;;6.20;;
70829;SDS011;58451;51.550;7.208;2024-02-21T03:17:57;16.50;;;6.00;;
70829;SDS011;58451;51.550;7.208;2024-02-21T03:19:30;20.10;;;6.30;;
70829;SDS011;58451;51.550;7.208;2024-02-21T03:21:02;26.20;;;6.90;;
70829;SDS011;58451;51.550;7.208;2024-02-21T03:22:36;24.90;;;6.80;;
70829;SDS011;58451;51.550;7.208;2024-02-21T03:24:08;23.10;;;6.90;;
70829;SDS011;58451;51.550;7.208;2024-02-21T03:25:41;18.50;;;5.90;;
70829;SDS011;58451;51.550;7.208;2024-02-21T03:27:18;22.10;;;7.30;;
70829;SDS011;58451;51.550;7.208;2024-02-21T03:28:50;21.80;;;7.10;;
70829;SDS011;58451;51.550;7.208;2024-02-21T03:30:32;22.50;;;7.50;;
70829;SDS011;58451;51.550;7.208;2024-02-21T03:32:05;18.40;;;6.70;;
70829;SDS011;58451;51.550;7.208;2024-02-21T03:33:38;23.90;;;6.80;;
70829;SDS011;58451;51.550;7.208;2024-02-21T03:35:11;22.20;;;6.50;;
70829;SDS011;58451;51.550;7.208;2024-02-21T03:36:43;23.10;;;7.10;;
70829;SDS011;58451;51.550;7.208;2024-02-21T03:38:15;19.00;;;6.40;;
70829;SDS011;58451;51.550;7.208;2024-02-21T03:39:47;22.60;;;6.40;;
70829;SDS011;58451;51.550;7.208;2024-02-21T03:41:26;20.40;;;6.60;;
70829;SDS011;58451;51.550;7.208;2024-02-21T03:42:59;24.20;;;6.40;;
70829;SDS011;58451;51.550;7.208;2024-02-21T03:44:32;19.60;;;6.10;;
70829;SDS011;58451;51.550;7.208;2024-02-21T03:46:04;18.20;;;6.40;;
70829;SDS011;58451;51.550;7.208;2024-02-21T03:47:38;22.40;;;6.80;;
70829;SDS011;58451;51.550;7.208;2024-02-21T03:49:10;18.50;;;6.10;;
70829;SDS011;58451;51.550;7.208;2024-02-21T03:50:42;22.10;;;6.60;;
70829;SDS011;58451;51.550;7.208;2024-02-21T03:52:15;21.70;;;6.40;;
70829;SDS011;58451;51.550;7.208;2024-02-21T03:53:47;17.50;;;6.00;;
70829;SDS011;58451;51.550;7.208;2024-02-21T03:55:19;18.60;;;5.80;;
70829;SDS011;58451;51.550;7.208;2024-02-21T03:56:51;18.20;;;6.00;;
70829;SDS011;58451;51.550;7.208;2024-02-21T03:58:23;22.10;;;7.00;;
70829;SDS011;58451;51.550;7.208;2024-02-21T03:59:56;23.10;;;6.30;;
70829;SDS011;58451;51.550;7.208;2024-02-21T04:01:28;21.00;;;5.80;;
70829;SDS011;58451;51.550;7.208;2024-02-21T04:03:00;19.70;;;6.50;;
70829;SDS011;58451;51.550;7.208;2024-02-21T04:04:35;24.50;;;6.80;;
70829;SDS011;58451;51.550;7.208;2024-02-21T04:06:10;20.60;;;5.70;;
70829;SDS011;58451;51.550;7.208;2024-02-21T04:07:43;18.50;;;6.10;;
70829;SDS011;58451;51.550;7.208;2024-02-21T04:09:15;22.00;;;6.20;;
70829;SDS011;58451;51.550;7.208;2024-02-21T04:10:48;18.60;;;5.50;;
70829;SDS011;58451;51.550;7.208;2024-02-21T04:12:22;17.90;;;5.50;;
70829;SDS011;58451;51.550;7.208;2024-02-21T04:13:54;22.20;;;6.90;;
70829;SDS011;58451;51.550;7.208;2024-02-21T04:15:27;17.50;;;6.00;;
70829;SDS011;58451;51.550;7.208;2024-02-21T04:16:59;17.80;;;6.20;;
70829;SDS011;58451;51.550;7.208;2024-02-21T04:18:31;18.60;;;6.30;;
70829;SDS011;58451;51.550;7.208;2024-02-21T04:20:04;17.30;;;6.30;;
70829;SDS011;58451;51.550;7.208;2024-02-21T04:21:45;20.20;;;6.70;;
70829;SDS011;58451;51.550;7.208;2024-02-21T04:23:17;20.00;;;5.90;;
70829;SDS011;58451;51.550;7.208;2024-02-21T04:24:49;17.50;;;5.80;;
70829;SDS011;58451;51.550;7.208;2024-02-21T04:26:21;14.90;;;5.00;;
70829;SDS011;58451;51.550;7.208;2024-02-21T04:27:54;17.40;;;5.40;;
70829;SDS011;58451;51.550;7.208;2024-02-21T04:29:26;16.30;;;5.60;;
70829;SDS011;58451;51.550;7.208;2024-02-21T04:30:59;19.90;;;6.70;;
70829;SDS011;58451;51.550;7.208;2024-02-21T04:32:33;17.00;;;4.50;;
70829;SDS011;58451;51.550;7.208;2024-02-21T04:34:06;18.70;;;5.60;;
70829;SDS011;58451;51.550;7.208;2024-02-21T04:35:38;24.20;;;6.40;;
70829;SDS011;58451;51.550;7.208;2024-02-21T04:37:11;16.80;;;4.90;;
70829;SDS011;58451;51.550;7.208;2024-02-21T04:38:43;19.70;;;6.20;;
70829;SDS011;58451;51.550;7.208;2024-02-21T04:40:15;18.80;;;5.50;;
70829;SDS011;58451;51.550;7.208;2024-02-21T04:41:48;15.50;;;5.10;;
70829;SDS011;58451;51.550;7.208;2024-02-21T04:43:20;20.00;;;6.00;;
70829;SDS011;58451;51.550;7.208;2024-02-21T04:44:53;20.50;;;5.50;;
70829;SDS011;58451;51.550;7.208;2024-02-21T04:46:26;20.60;;;6.50;;
70829;SDS011;58451;51.550;7.208;2024-02-21T04:47:58;21.40;;;6.20;;
70829;SDS011;58451;51.550;7.208;2024-02-21T04:49:31;22.10;;;6.50;;
70829;SDS011;58451;51.550;7.208;2024-02-21T04:51:04;16.50;;;6.10;;
70829;SDS011;58451;51.550;7.208;2024-02-21T04:52:36;19.80;;;5.70;;
70829;SDS011;58451;51.550;7.208;2024-02-21T04:54:08;19.00;;;5.70;;
70829;SDS011;58451;51.550;7.208;2024-02-21T04:55:40;21.30;;;5.80;;
70829;SDS011;58451;51.550;7.208;2024-02-21T04:57:12;17.70;;;4.90;;
70829;SDS011;58451;51.550;7.208;2024-02-21T04:58:49;15.10;;;4.50;;
70829;SDS011;58451;51.550;7.208;2024-02-21T05:00:24;18.70;;;5.40;;
70829;SDS011;58451;51.550;7.208;2024-02-21T05:01:56;17.00;;;4.80;;
70829;SDS011;58451;51.550;7.208;2024-02-21T05:03:28;17.40;;;5.00;;
70829;SDS011;58451;51.550;7.208;2024-02-21T05:05:01;16.60;;;4.70;;
70829;SDS011;58451;51.550;7.208;2024-02-21T05:06:38;15.10;;;5.30;;
70829;SDS011;58451;51.550;7.208;2024-02-21T05:08:11;13.70;;;4.90;;
70829;SDS011;58451;51.550;7.208;2024-02-21T05:09:43;17.50;;;5.80;;
70829;SDS011;58451;51.550;7.208;2024-02-21T05:11:15;16.70;;;5.60;;
70829;SDS011;58451;51.550;7.208;2024-02-21T05:12:48;17.20;;;5.20;;
70829;SDS011;58451;51.550;7.208;2024-02-21T05:14:20;15.40;;;4.60;;
70829;SDS011;58451;51.550;7.208;2024-02-21T05:15:52;14.80;;;5.20;;
70829;SDS011;58451;51.550;7.208;2024-02-21T05:17:25;14.60;;;4.80;;
70829;SDS011;58451;51.550;7.208;2024-02-21T05:18:57;17.30;;;4.80;;
70829;SDS011;58451;51.550;7.208;2024-02-21T05:20:30;15.90;;;5.10;;
70829;SDS011;58451;51.550;7.208;2024-02-21T05:22:02;17.40;;;5.10;;
70829;SDS011;58451;51.550;7.208;2024-02-21T05:23:35;14.50;;;4.90;;
70829;SDS011;58451;51.550;7.208;2024-02-21T05:25:07;19.00;;;5.60;;
70829;SDS011;58451;51.550;7.208;2024-02-21T05:26:40;16.70;;;4.60;;
70829;SDS011;58451;51.550;7.208;2024-02-21T05:28:12;17.90;;;5.00;;
70829;SDS011;58451;51.550;7.208;2024-02-21T05:29:44;16.10;;;4.50;;
70829;SDS011;58451;51.550;7.208;2024-02-21T05:31:19;13.70;;;4.40;;
70829;SDS011;58451;51.550;7.208;2024-02-21T05:32:53;17.10;;;4.70;;
70829;SDS011;58451;51.550;7.208;2024-02-21T05:34:25;19.70;;;4.80;;
70829;SDS011;58451;51.550;7.208;2024-02-21T05:35:59;20.00;;;4.50;;
70829;SDS011;58451;51.550;7.208;2024-02-21T05:37:32;17.30;;;4.60;;
70829;SDS011;58451;51.550;7.208;2024-02-21T05:39:04;17.80;;;4.70;;
70829;SDS011;58451;51.550;7.208;2024-02-21T05:40:37;17.30;;;4.50;;
70829;SDS011;58451;51.550;7.208;2024-02-21T05:42:10;16.20;;;4.60;;
70829;SDS011;58451;51.550;7.208;2024-02-21T05:43:43;16.60;;;4.50;;
70829;SDS011;58451;51.550;7.208;2024-02-21T05:45:16;16.30;;;4.80;;
70829;SDS011;58451;51.550;7.208;2024-02-21T05:46:48;12.50;;;3.90;;
70829;SDS011;58451;51.550;7.208;2024-02-21T05:48:21;14.20;;;4.80;;
70829;SDS011;58451;51.550;7.208;2024-02-21T05:49:54;13.30;;;4.20;;
70829;SDS011;58451;51.550;7.208;2024-02-21T05:51:32;10.60;;;4.20;;
70829;SDS011;58451;51.550;7.208;2024-02-21T05:53:06;13.30;;;3.80;;
70829;SDS011;58451;51.550;7.208;2024-02-21T05:54:39;14.50;;;4.40;;
70829;SDS011;58451;51.550;7.208;2024-02-21T05:56:12;12.50;;;5.10;;
70829;SDS011;58451;51.550;7.208;2024-02-21T05:57:46;9.60;;;3.50;;
70829;SDS011;58451;51.550;7.208;2024-02-21T05:59:19;12.50;;;3.90;;
70829;SDS011;58451;51.550;7.208;2024-02-21T06:00:51;16.40;;;4.50;;
70829;SDS011;58451;51.550;7.208;2024-02-21T06:02:23;17.20;;;5.70;;
70829;SDS011;58451;51.550;7.208;2024-02-21T06:03:58;12.70;;;3.70;;
70829;SDS011;58451;51.550;7.208;2024-02-21T06:05:31;14.00;;;4.10;;
70829;SDS011;58451;51.550;7.208;2024-02-21T06:07:07;16.80;;;4.40;;
70829;SDS011;58451;51.550;7.208;2024-02-21T06:08:41;15.10;;;4.20;;
70829;SDS011;58451;51.550;7.208;2024-02-21T06:10:13;12.60;;;3.80;;
70829;SDS011;58451;51.550;7.208;2024-02-21T06:11:46;10.50;;;3.60;;
70829;SDS011;58451;51.550;7.208;2024-02-21T06:13:21;19.90;;;4.30;;
70829;SDS011;58451;51.550;7.208;2024-02-21T06:14:53;16.30;;;4.40;;
70829;SDS011;58451;51.550;7.208;2024-02-21T06:16:25;16.40;;;4.30;;
70829;SDS011;58451;51.550;7.208;2024-02-21T06:18:01;13.90;;;4.00;;
70829;SDS011;58451;51.550;7.208;2024-02-21T06:19:36;13.20;;;4.30;;
70829;SDS011;58451;51.550;7.208;2024-02-21T06:21:08;12.20;;;4.20;;
70829;SDS011;58451;51.550;7.208;2024-02-21T06:22:40;15.10;;;4.40;;
70829;SDS011;58451;51.550;7.208;2024-02-21T06:24:12;13.50;;;3.70;;
70829;SDS011;58451;51.550;7.208;2024-02-21T06:25:45;14.30;;;4.30;;
70829;SDS011;58451;51.550;7.208;2024-02-21T06:27:20;16.40;;;4.20;;
70829;SDS011;58451;51.550;7.208;2024-02-21T06:28:52;14.10;;;4.10;;
70829;SDS011;58451;51.550;7.208;2024-02-21T06:30:24;13.40;;;3.70;;
70829;SDS011;58451;51.550;7.208;2024-02-21T06:31:57;11.50;;;3.90;;
70829;SDS011;58451;51.550;7.208;2024-02-21T06:33:30;14.00;;;4.10;;
70829;SDS011;58451;51.550;7.208;2024-02-21T06:35:03;10.60;;;4.00;;
70829;SDS011;58451;51.550;7.208;2024-02-21T06:36:36;14.00;;;4.20;;
70829;SDS011;58451;51.550;7.208;2024-02-21T06:38:11;11.20;;;3.30;;
70829;SDS011;58451;51.550;7.208;2024-02-21T06:39:47;11.90;;;3.80;;
70829;SDS011;58451;51.550;7.208;2024-02-21T06:41:20;11.30;;;3.50;;
70829;SDS011;58451;51.550;7.208;2024-02-21T06:42:52;17.10;;;4.00;;
70829;SDS011;58451;51.550;7.208;2024-02-21T06:44:25;13.90;;;3.90;;
70829;SDS011;58451;51.550;7.208;2024-02-21T06:46:00;11.40;;;3.70;;
70829;SDS011;58451;51.550;7.208;2024-02-21T06:47:33;12.90;;;3.60;;
70829;SDS011;58451;51.550;7.208;2024-02-21T06:49:05;13.30;;;3.90;;
70829;SDS011;58451;51.550;7.208;2024-02-21T06:50:38;13.60;;;3.50;;
70829;SDS011;58451;51.550;7.208;2024-02-21T06:52:10;13.10;;;3.50;;
70829;SDS011;58451;51.550;7.208;2024-02-21T06:53:43;11.40;;;3.50;;
70829;SDS011;58451;51.550;7.208;2024-02-21T06:55:15;13.20;;;3.40;;
70829;SDS011;58451;51.550;7.208;2024-02-21T06:56:49;12.40;;;3.50;;
70829;SDS011;58451;51.550;7.208;2024-02-21T06:58:21;13.40;;;3.30;;
70829;SDS011;58451;51.550;7.208;2024-02-21T06:59:53;14.30;;;3.70;;
70829;SDS011;58451;51.550;7.208;2024-02-21T07:01:25;17.40;;;3.80;;
70829;SDS011;58451;51.550;7.208;2024-02-21T07:02:58;13.60;;;3.70;;
70829;SDS011;58451;51.550;7.208;2024-02-21T07:04:30;18.40;;;3.60;;
70829;SDS011;58451;51.550;7.208;2024-02-21T07:06:03;13.10;;;3.50;;
70829;SDS011;58451;51.550;7.208;2024-02-21T07:07:36;13.60;;;3.40;;
70829;SDS011;58451;51.550;7.208;2024-02-21T07:09:08;13.60;;;3.50;;
70829;SDS011;58451;51.550;7.208;2024-02-21T07:10:40;14.20;;;3.50;;
70829;SDS011;58451;51.550;7.208;2024-02-21T07:12:13;11.00;;;3.30;;
70829;SDS011;58451;51.550;7.208;2024-02-21T07:13:45;9.90;;;2.90;;
70829;SDS011;58451;51.550;7.208;2024-02-21T07:15:18;14.30;;;4.20;;
70829;SDS011;58451;51.550;7.208;2024-02-21T07:16:53;9.70;;;3.30;;
70829;SDS011;58451;51.550;7.208;2024-02-21T07:18:26;13.10;;;3.60;;
70829;SDS011;58451;51.550;7.208;2024-02-21T07:19:58;14.60;;;3.50;;
70829;SDS011;58451;51.550;7.208;2024-02-21T07:21:31;15.10;;;3.60;;
70829;SDS011;58451;51.550;7.208;2024-02-21T07:23:04;13.50;;;3.30;;
70829;SDS011;58451;51.550;7.208;2024-02-21T07:24:36;15.40;;;3.50;;
70829;SDS011;58451;51.550;7.208;2024-02-21T07:26:10;13.30;;;3.20;;
70829;SDS011;58451;51.550;7.208;2024-02-21T07:27:44;13.50;;;3.70;;
70829;SDS011;58451;51.550;7.208;2024-02-21T07:29:16;11.30;;;3.00;;
70829;SDS011;58451;51.550;7.208;2024-02-21T07:30:50;14.30;;;3.40;;
70829;SDS011;58451;51.550;7.208;2024-02-21T07:32:22;12.70;;;3.50;;
70829;SDS011;58451;51.550;7.208;2024-02-21T07:33:56;11.10;;;3.10;;
70829;SDS011;58451;51.550;7.208;2024-02-21T07:35:29;12.80;;;3.30;;
70829;SDS011;58451;51.550;7.208;2024-02-21T07:37:05;10.40;;;2.40;;
70829;SDS011;58451;51.550;7.208;2024-02-21T07:38:37;12.80;;;3.30;;
70829;SDS011;58451;51.550;7.208;2024-02-21T07:40:22;9.00;;;2.40;;
70829;SDS011;58451;51.550;7.208;2024-02-21T07:41:55;12.60;;;3.60;;
70829;SDS011;58451;51.550;7.208;2024-02-21T07:43:27;10.60;;;2.60;;
70829;SDS011;58451;51.550;7.208;2024-02-21T07:45:00;11.00;;;3.10;;
70829;SDS011;58451;51.550;7.208;2024-02-21T07:46:34;14.50;;;3.40;;
70829;SDS011;58451;51.550;7.208;2024-02-21T07:48:07;11.40;;;3.70;;
70829;SDS011;58451;51.550;7.208;2024-02-21T07:49:45;13.00;;;3.60;;
70829;SDS011;58451;51.550;7.208;2024-02-21T07:51:18;14.80;;;3.30;;
70829;SDS011;58451;51.550;7.208;2024-02-21T07:52:51;12.80;;;3.40;;
70829;SDS011;58451;51.550;7.208;2024-02-21T07:54:23;11.40;;;3.30;;
70829;SDS011;58451;51.550;7.208;2024-02-21T07:55:57;14.10;;;3.90;;
70829;SDS011;58451;51.550;7.208;2024-02-21T07:57:30;12.50;;;2.90;;
70829;SDS011;58451;51.550;7.208;2024-02-21T07:59:05;12.80;;;3.20;;
70829;SDS011;58451;51.550;7.208;2024-02-21T08:00:40;13.70;;;3.30;;
70829;SDS011;58451;51.550;7.208;2024-02-21T08:02:16;13.20;;;3.10;;
70829;SDS011;58451;51.550;7.208;2024-02-21T08:03:49;10.80;;;3.80;;
70829;SDS011;58451;51.550;7.208;2024-02-21T08:05:21;16.00;;;3.50;;
70829;SDS011;58451;51.550;7.208;2024-02-21T08:06:54;14.80;;;3.70;;
70829;SDS011;58451;51.550;7.208;2024-02-21T08:08:33;12.10;;;3.70;;
70829;SDS011;58451;51.550;7.208;2024-02-21T08:10:07;11.90;;;3.70;;
70829;SDS011;58451;51.550;7.208;2024-02-21T08:11:42;12.60;;;2.80;;
70829;SDS011;58451;51.550;7.208;2024-02-21T08:13:14;13.00;;;3.40;;
70829;SDS011;58451;51.550;7.208;2024-02-21T08:14:47;10.40;;;3.20;;
70829;SDS011;58451;51.550;7.208;2024-02-21T08:16:19;12.60;;;3.50;;
70829;SDS011;58451;51.550;7.208;2024-02-21T08:17:51;10.80;;;3.10;;
70829;SDS011;58451;51.550;7.208;2024-02-21T08:19:23;14.90;;;3.70;;
70829;SDS011;58451;51.550;7.208;2024-02-21T08:20:56;12.80;;;3.40;;
70829;SDS011;58451;51.550;7.208;2024-02-21T08:22:28;19.60;;;3.50;;
70829;SDS011;58451;51.550;7.208;2024-02-21T08:24:00;11.70;;;3.00;;
70829;SDS011;58451;51.550;7.208;2024-02-21T08:25:32;15.60;;;3.30;;
70829;SDS011;58451;51.550;7.208;2024-02-21T08:27:05;10.80;;;2.80;;
70829;SDS011;58451;51.550;7.208;2024-02-21T08:28:37;12.00;;;3.10;;
70829;SDS011;58451;51.550;7.208;2024-02-21T08:30:11;11.70;;;3.20;;
70829;SDS011;58451;51.550;7.208;2024-02-21T08:31:43;13.30;;;3.50;;
70829;SDS011;58451;51.550;7.208;2024-02-21T08:33:15;10.40;;;2.90;;
70829;SDS011;58451;51.550;7.208;2024-02-21T08:34:51;9.30;;;2.60;;
70829;SDS011;58451;51.550;7.208;2024-02-21T08:36:23;7.70;;;2.20;;
70829;SDS011;58451;51.550;7.208;2024-02-21T08:37:55;10.10;;;2.50;;
70829;SDS011;58451;51.550;7.208;2024-02-21T08:39:27;8.70;;;2.60;;
70829;SDS011;58451;51.550;7.208;2024-02-21T08:41:04;9.60;;;2.60;;
70829;SDS011;58451;51.550;7.208;2024-02-21T08:42:40;12.20;;;3.10;;
70829;SDS011;58451;51.550;7.208;2024-02-21T08:44:14;8.80;;;2.50;;
70829;SDS011;58451;51.550;7.208;2024-02-21T08:45:46;10.50;;;3.20;;
70829;SDS011;58451;51.550;7.208;2024-02-21T08:47:18;9.40;;;2.40;;
70829;SDS011;58451;51.550;7.208;2024-02-21T08:48:50;10.20;;;2.70;;
70829;SDS011;58451;51.550;7.208;2024-02-21T08:50:23;8.40;;;2.30;;
70829;SDS011;58451;51.550;7.208;2024-02-21T08:52:01;9.40;;;2.50;;
70829;SDS011;58451;51.550;7.208;2024-02-21T08:53:35;11.70;;;2.50;;
70829;SDS011;58451;51.550;7.208;2024-02-21T08:55:08;12.60;;;2.80;;
70829;SDS011;58451;51.550;7.208;2024-02-21T08:56:40;11.00;;;2.60;;
70829;SDS011;58451;51.550;7.208;2024-02-21T08:58:13;12.50;;;2.40;;
70829;SDS011;58451;51.550;7.208;2024-02-21T08:59:48;11.00;;;2.70;;
70829;SDS011;58451;51.550;7.208;2024-02-21T09:01:20;10.90;;;2.30;;
70829;SDS011;58451;51.550;7.208;2024-02-21T09:02:52;11.50;;;2.60;;
70829;SDS011;58451;51.550;7.208;2024-02-21T09:04:28;8.30;;;2.20;;
70829;SDS011;58451;51.550;7.208;2024-02-21T09:06:02;10.10;;;2.30;;
70829;SDS011;58451;51.550;7.208;2024-02-21T09:07:36;13.50;;;2.40;;
70829;SDS011;58451;51.550;7.208;2024-02-21T09:09:09;12.00;;;2.60;;
70829;SDS011;58451;51.550;7.208;2024-02-21T09:10:42;9.90;;;2.30;;
70829;SDS011;58451;51.550;7.208;2024-02-21T09:12:14;12.50;;;2.80;;
70829;SDS011;58451;51.550;7.208;2024-02-21T09:13:47;9.30;;;2.50;;